Lobo

Go HERE for most recent data if this page is not up to date.

Jump to table bottom
Date/Time Temp deg F RH % 24 Hr Snow (in) Snow Depth (in) H2O (in)
04/23 13:00 43.6 46 "NAN" 61.0 0.00
04/23 12:00 40.6 56 "NAN" 61.4 0.00
04/23 11:00 36.6 77 "NAN" 61.1 0.00
04/23 10:00 34.0 79 "NAN" 61.8 0.01
04/23 09:00 35.0 86 "NAN" 61.1 0.01
04/23 08:00 34.3 68 "NAN" 61.4 0.00
04/23 07:00 35.4 63 "NAN" 61.6 0.00
04/23 06:00 35.8 65 "NAN" 61.5 0.00
04/23 05:00 36.3 61 "NAN" 61.6 0.00
04/23 04:00 36.2 55 "NAN" 61.8 0.00
04/23 03:00 36.8 50 "NAN" 61.9 0.00
04/23 02:00 37.0 53 "NAN" 62.1 0.00
04/23 01:00 37.3 51 "NAN" 62.0 0.00
04/23 00:00 37.5 48 "NAN" 62.2 0.00
04/22 23:00 37.9 51 "NAN" 62.2 0.00
04/22 22:00 37.5 48 "NAN" 62.2 0.00
04/22 21:00 37.0 45 "NAN" 62.2 0.00
04/22 20:00 38.2 51 "NAN" 62.0 0.00
04/22 19:00 39.0 45 "NAN" 62.1 0.00
04/22 18:00 39.6 37 "NAN" 61.9 0.00
04/22 17:00 40.9 39 "NAN" 61.5 0.00
04/22 16:00 42.1 45 "NAN" 61.2 0.00
04/22 15:00 41.9 53 "NAN" 61.7 0.00
04/22 14:00 40.6 59 "NAN" 62.0 0.00
04/22 13:00 38.6 67 "NAN" 62.9 0.00
04/22 12:00 35.9 60 "NAN" 63.5 0.00
04/22 11:00 32.0 75 "NAN" 63.7 0.00
04/22 10:00 27.5 82 "NAN" 64.6 0.00
04/22 09:00 25.4 93 "NAN" 64.8 0.00
04/22 08:00 24.6 95 "NAN" 64.5 0.00
04/22 07:00 23.3 97 "NAN" 65.1 0.00
04/22 06:00 22.9 95 "NAN" 65.3 0.00
04/22 05:00 23.2 95 "NAN" 65.0 0.00
04/22 04:00 24.1 95 "NAN" 65.0 0.00
04/22 03:00 24.6 97 "NAN" 64.8 0.00
04/22 02:00 25.1 98 "NAN" 64.9 0.00
04/22 01:00 24.8 95 "NAN" 64.9 0.00
04/22 00:00 25.6 90 "NAN" 64.8 0.00
.